YSSY/SYD METAR and TAF weather

Enter ICAO airport designator
Station Type Date Time Source
YSSY METAR 2019/08/20 09:30 UTC NOAA

YSSY 200930Z 29018KT CAVOK 14/01 Q1020 FM0930 MOD/SEV TURB BLW 5000FT


Station Type Date Time Source
YSSY Decoded METAR 2019/08/20 09:30 UTC NOAA

Sydney Airport, Australia (YSSY) 33-57S 151-11E 3M
Aug 20, 2019 - 05:30 AM EDT / 2019.08.20 0930 UTC
Wind: from the WNW (290 degrees) at 21 MPH (18 KT):0
Visibility: greater than 7 mile(s):0
Temperature: 57 F (14 C)
Dew Point: 33 F (1 C)
Relative Humidity: 41%
Pressure (altimeter): 30.12 in. Hg (1020 hPa)
ob: YSSY 200930Z 29018KT CAVOK 14/01 Q1020 FM0930 MOD/SEV TURB BLW 5000FT
cycle: 9

Station Type Date Time Source
YSSY TAF 2019/08/20 06:37 UTC NOAA

TAF YSSY 200505Z 2006/2112 25018G28KT CAVOK
FM200900 27015G25KT CAVOK
FM202300 25020G30KT CAVOK
FM210200 25025G35KT CAVOK
FM211000 25018G28KT CAVOK

Example: see airport list